createdAt,value
2023-03-17T00:01:54.572Z,1.95
2023-03-17T00:04:24.328Z,2.50
2023-03-17T00:06:51.783Z,2.72
2023-03-17T00:09:20.244Z,2.25
2023-03-17T00:11:47.989Z,2.10
2023-03-17T00:14:15.145Z,2.30
2023-03-17T00:16:49.614Z,2.28
2023-03-17T00:19:28.334Z,2.17
2023-03-17T00:21:56.124Z,2.60
2023-03-17T00:24:23.340Z,2.00
2023-03-17T00:26:50.097Z,2.20
2023-03-17T00:29:16.834Z,2.30
2023-03-17T00:31:48.128Z,2.20
2023-03-17T00:34:18.552Z,1.90
2023-03-17T00:36:50.116Z,1.80
2023-03-17T00:39:17.368Z,1.98
2023-03-17T00:41:44.306Z,1.98
2023-03-17T00:44:11.969Z,2.33
2023-03-17T00:46:39.573Z,2.40
2023-03-17T00:51:46.006Z,2.15
2023-03-17T00:54:15.623Z,2.05
2023-03-17T00:56:43.879Z,1.67
2023-03-17T00:59:33.568Z,1.77
2023-03-17T01:02:02.985Z,1.92
2023-03-17T01:04:29.768Z,1.50
2023-03-17T01:06:58.598Z,2.15
2023-03-17T01:09:27.149Z,1.90
2023-03-17T01:11:55.595Z,2.58
2023-03-17T01:14:23.245Z,1.90
2023-03-17T01:16:50.535Z,1.88
2023-03-17T01:19:18.077Z,2.00
2023-03-17T01:21:46.473Z,2.35
2023-03-17T01:24:13.746Z,1.63
2023-03-17T01:26:40.639Z,1.88
2023-03-17T01:29:08.012Z,1.60
2023-03-17T01:31:35.519Z,1.48
2023-03-17T01:34:02.795Z,1.60
2023-03-17T01:36:29.601Z,1.40
2023-03-17T01:38:57.281Z,1.65
2023-03-17T01:41:25.103Z,1.70
2023-03-17T01:43:51.887Z,1.60
2023-03-17T01:46:34.040Z,1.55
2023-03-17T01:49:25.062Z,1.55
2023-03-17T01:52:14.330Z,1.90
2023-03-17T01:55:05.268Z,1.73
2023-03-17T01:57:45.017Z,1.90
2023-03-17T02:00:18.677Z,1.73
2023-03-17T02:02:51.981Z,2.15
2023-03-17T02:05:23.053Z,1.92
2023-03-17T02:07:49.984Z,1.30
2023-03-17T02:10:20.606Z,1.30
2023-03-17T02:12:52.111Z,1.73
2023-03-17T02:15:19.416Z,1.55
2023-03-17T02:17:46.152Z,1.50
2023-03-17T02:20:15.996Z,1.75
2023-03-17T02:22:49.804Z,1.70
2023-03-17T02:25:17.502Z,1.77
2023-03-17T02:27:47.863Z,1.77
2023-03-17T02:30:17.423Z,1.60
2023-03-17T02:32:44.183Z,2.05
2023-03-17T02:35:11.750Z,1.80
2023-03-17T02:37:38.572Z,2.00
2023-03-17T02:40:07.137Z,2.17
2023-03-17T02:42:34.625Z,1.50
2023-03-17T02:45:02.286Z,1.70
2023-03-17T02:47:29.104Z,2.40
2023-03-17T02:49:56.105Z,2.10
2023-03-17T02:52:22.912Z,2.10
2023-03-17T02:54:49.753Z,1.80
2023-03-17T02:57:16.782Z,2.00
2023-03-17T02:59:43.651Z,2.00
2023-03-17T03:02:11.561Z,1.90
2023-03-17T03:04:38.384Z,2.38
2023-03-17T03:07:05.323Z,2.92
2023-03-17T03:09:32.333Z,2.28
2023-03-17T03:12:00.198Z,2.60
2023-03-17T03:14:27.191Z,3.30
2023-03-17T03:16:54.445Z,3.63
2023-03-17T03:19:22.390Z,3.17
2023-03-17T03:21:49.783Z,1.98
2023-03-17T03:24:17.075Z,2.13
2023-03-17T03:26:43.959Z,1.85
2023-03-17T03:29:10.890Z,1.70
2023-03-17T03:31:37.752Z,1.73
2023-03-17T03:34:04.480Z,2.15
2023-03-17T03:36:31.362Z,2.17
2023-03-17T03:38:58.701Z,1.90
2023-03-17T03:41:25.508Z,1.90
2023-03-17T03:43:52.459Z,1.80
2023-03-17T03:46:19.327Z,1.70
2023-03-17T03:48:46.089Z,1.77
2023-03-17T03:51:12.834Z,1.70
2023-03-17T03:53:39.618Z,1.70
2023-03-17T03:56:07.104Z,1.90
2023-03-17T03:58:33.884Z,1.58
2023-03-17T04:01:09.531Z,1.83
2023-03-17T04:03:38.091Z,1.65
2023-03-17T04:06:06.027Z,1.90
2023-03-17T04:08:33.243Z,2.25
2023-03-17T04:11:00.115Z,1.85
2023-03-17T04:13:27.178Z,1.95
2023-03-17T04:15:54.027Z,2.10
2023-03-17T04:18:20.852Z,2.25
2023-03-17T04:20:47.638Z,2.30
2023-03-17T04:23:14.372Z,2.10
2023-03-17T04:25:41.168Z,2.85
2023-03-17T04:28:09.055Z,2.75
2023-03-17T04:30:35.885Z,3.10
2023-03-17T04:33:02.769Z,3.67
2023-03-17T04:35:29.975Z,7.75
2023-03-17T04:37:56.788Z,7.05
2023-03-17T04:40:23.605Z,7.28
2023-03-17T04:42:50.467Z,5.88
2023-03-17T04:45:17.437Z,9.38
2023-03-17T04:47:46.263Z,12.77
2023-03-17T04:50:14.039Z,10.90
2023-03-17T04:52:41.620Z,7.28
2023-03-17T04:55:09.235Z,5.70
2023-03-17T04:57:36.961Z,4.38
2023-03-17T05:00:06.053Z,3.40
2023-03-17T05:02:33.044Z,3.60
2023-03-17T05:04:59.932Z,3.35
2023-03-17T05:07:26.710Z,3.35
2023-03-17T05:09:53.602Z,2.90
2023-03-17T05:12:20.572Z,3.17
2023-03-17T05:14:47.306Z,3.15
2023-03-17T05:17:14.310Z,4.07
2023-03-17T05:19:41.141Z,3.33
2023-03-17T05:22:08.023Z,3.22
2023-03-17T05:24:34.782Z,3.25
2023-03-17T05:27:01.663Z,3.30
2023-03-17T05:29:28.660Z,3.20
2023-03-17T05:31:55.531Z,3.03
2023-03-17T05:34:22.461Z,2.80
2023-03-17T05:36:50.451Z,3.22
2023-03-17T05:39:17.582Z,3.22
2023-03-17T05:41:44.410Z,3.00
2023-03-17T05:44:11.255Z,3.45
2023-03-17T05:46:38.094Z,3.60
2023-03-17T05:49:04.963Z,3.30
2023-03-17T05:51:32.041Z,3.70
2023-03-17T05:54:01.422Z,3.30
2023-03-17T05:56:39.262Z,3.30
2023-03-17T05:59:06.086Z,2.80
2023-03-17T06:01:32.843Z,2.97
2023-03-17T06:04:01.750Z,2.88
2023-03-17T06:06:28.802Z,3.70
2023-03-17T06:08:55.583Z,2.83
2023-03-17T06:11:22.391Z,3.15
2023-03-17T06:13:49.364Z,3.78
2023-03-17T06:16:16.612Z,3.22
2023-03-17T06:18:43.898Z,3.50
2023-03-17T06:21:10.865Z,3.58
2023-03-17T06:23:37.891Z,3.45
2023-03-17T06:26:05.561Z,3.75
2023-03-17T06:28:32.844Z,3.90
2023-03-17T06:30:59.663Z,3.70
2023-03-17T06:33:26.574Z,3.22
2023-03-17T06:35:53.770Z,3.45
2023-03-17T06:38:20.892Z,3.70
2023-03-17T06:40:51.091Z,3.38
2023-03-17T06:43:19.688Z,3.35
2023-03-17T06:45:46.957Z,3.22
2023-03-17T06:48:13.883Z,3.50
2023-03-17T06:50:41.114Z,3.03
2023-03-17T06:53:08.390Z,3.20
2023-03-17T06:55:35.486Z,5.22
2023-03-17T06:58:03.100Z,4.82
2023-03-17T07:00:30.490Z,7.95
2023-03-17T07:02:57.873Z,13.55
2023-03-17T07:05:24.889Z,10.45
2023-03-17T07:07:51.803Z,6.25
2023-03-17T07:10:19.082Z,5.50
2023-03-17T07:12:46.140Z,4.85
2023-03-17T07:15:13.772Z,4.72
2023-03-17T07:17:41.444Z,4.32
2023-03-17T07:20:09.685Z,4.93
2023-03-17T07:22:36.496Z,4.25
2023-03-17T07:25:03.553Z,3.90
2023-03-17T07:27:31.292Z,3.83
2023-03-17T07:30:00.465Z,3.60
2023-03-17T07:32:27.363Z,3.92
2023-03-17T07:34:54.680Z,4.25
2023-03-17T07:37:25.072Z,4.32
2023-03-17T07:39:52.047Z,4.68
2023-03-17T07:42:18.926Z,3.28
2023-03-17T07:44:45.993Z,4.05
2023-03-17T07:47:13.347Z,3.40
2023-03-17T07:49:42.200Z,4.05
2023-03-17T07:52:10.399Z,4.45
2023-03-17T07:54:37.836Z,3.85
2023-03-17T07:57:05.763Z,3.88
2023-03-17T07:59:33.767Z,4.25
2023-03-17T08:02:01.521Z,3.80
2023-03-17T08:04:28.743Z,3.60
2023-03-17T08:06:57.331Z,3.40
2023-03-17T08:09:24.367Z,3.22
2023-03-17T08:11:51.243Z,3.10
2023-03-17T08:14:18.083Z,3.58
2023-03-17T08:16:45.027Z,3.58
2023-03-17T08:19:11.909Z,3.60
2023-03-17T08:21:38.675Z,3.60
2023-03-17T08:24:05.929Z,3.90
2023-03-17T08:26:34.103Z,4.38
2023-03-17T08:29:01.546Z,4.25
2023-03-17T08:31:28.728Z,4.15
2023-03-17T08:33:59.438Z,3.70
2023-03-17T08:36:26.269Z,3.80
2023-03-17T08:38:53.471Z,4.22
2023-03-17T08:41:23.803Z,3.50
2023-03-17T08:43:51.752Z,3.42
2023-03-17T08:46:21.841Z,3.38
2023-03-17T08:48:51.665Z,3.20
2023-03-17T08:51:23.676Z,3.80
2023-03-17T08:53:52.640Z,3.13
2023-03-17T08:56:20.070Z,3.63
2023-03-17T08:58:47.634Z,3.30
2023-03-17T09:01:15.701Z,3.45
2023-03-17T09:03:43.336Z,3.90
2023-03-17T09:06:12.437Z,3.38
2023-03-17T09:08:44.601Z,3.55
2023-03-17T09:11:14.820Z,5.00
2023-03-17T09:13:42.198Z,5.22
2023-03-17T09:16:10.053Z,5.72
2023-03-17T09:18:37.146Z,5.72
2023-03-17T09:21:05.100Z,8.18
2023-03-17T09:23:33.736Z,7.32
2023-03-17T09:26:02.971Z,5.47
2023-03-17T09:28:30.073Z,5.72
2023-03-17T09:30:59.349Z,5.95
2023-03-17T09:33:27.215Z,5.50
2023-03-17T09:35:57.021Z,4.88
2023-03-17T09:38:25.703Z,3.65
2023-03-17T09:41:18.480Z,4.00
2023-03-17T09:43:52.308Z,3.10
2023-03-17T09:46:25.188Z,3.42
2023-03-17T09:49:42.032Z,3.08
2023-03-17T09:52:15.171Z,2.95
2023-03-17T09:54:42.821Z,3.17
2023-03-17T09:57:35.706Z,3.20
2023-03-17T10:00:07.867Z,3.28
2023-03-17T10:02:37.726Z,3.88
2023-03-17T10:05:13.365Z,2.88
2023-03-17T10:08:05.364Z,3.00
2023-03-17T10:10:49.381Z,3.10
2023-03-17T10:13:27.577Z,3.03
2023-03-17T10:16:09.825Z,3.40
2023-03-17T10:18:51.476Z,2.90
2023-03-17T10:21:43.739Z,2.55
2023-03-17T10:24:11.525Z,2.60
2023-03-17T10:26:45.920Z,2.90
2023-03-17T10:29:16.418Z,2.90
2023-03-17T10:31:43.688Z,2.90
2023-03-17T10:34:27.439Z,2.80
2023-03-17T10:36:59.930Z,2.88
2023-03-17T10:39:28.105Z,2.47
2023-03-17T10:42:09.314Z,2.60
2023-03-17T10:44:56.297Z,3.13
2023-03-17T10:47:30.064Z,2.95
2023-03-17T10:49:58.885Z,2.78
2023-03-17T10:52:30.245Z,2.67
2023-03-17T10:55:04.331Z,2.70
2023-03-17T10:57:31.381Z,3.65
2023-03-17T11:00:01.801Z,3.50
2023-03-17T11:02:42.783Z,3.30
2023-03-17T11:05:22.145Z,3.45
2023-03-17T11:07:49.526Z,4.25
2023-03-17T11:10:24.699Z,3.70
2023-03-17T11:13:02.657Z,4.10
2023-03-17T11:15:40.475Z,3.97
2023-03-17T11:18:19.157Z,3.35
2023-03-17T11:20:52.629Z,3.63
2023-03-17T11:23:40.780Z,3.72
2023-03-17T11:26:43.525Z,3.08
2023-03-17T11:29:21.089Z,3.13
2023-03-17T11:31:55.890Z,2.97
2023-03-17T11:34:36.998Z,2.63
2023-03-17T11:37:41.578Z,3.15
2023-03-17T11:40:20.658Z,3.40
2023-03-17T11:43:05.875Z,2.88
2023-03-17T11:45:56.448Z,2.80
2023-03-17T11:48:29.996Z,3.70
2023-03-17T11:51:31.905Z,3.35
2023-03-17T11:54:31.938Z,3.10
2023-03-17T11:57:01.312Z,2.85
2023-03-17T11:59:40.525Z,2.95
2023-03-17T12:02:29.492Z,3.25
2023-03-17T12:05:02.479Z,3.10
2023-03-17T12:07:41.651Z,3.28
2023-03-17T12:10:23.395Z,3.50
2023-03-17T12:13:19.023Z,3.30
2023-03-17T12:15:58.261Z,3.15
2023-03-17T12:18:37.647Z,3.13
2023-03-17T12:21:15.641Z,3.20
2023-03-17T12:24:02.454Z,3.53
2023-03-17T12:26:35.447Z,4.28
2023-03-17T12:29:20.676Z,3.30
2023-03-17T12:31:56.264Z,3.47
2023-03-17T12:34:31.646Z,3.72
2023-03-17T12:36:58.682Z,3.13
2023-03-17T12:39:32.391Z,3.22
2023-03-17T12:42:33.708Z,3.08
2023-03-17T12:45:19.725Z,3.78
2023-03-17T12:47:49.672Z,3.17
2023-03-17T12:50:46.904Z,3.10
2023-03-17T12:53:28.445Z,3.03
2023-03-17T12:55:59.203Z,3.92
2023-03-17T12:58:46.535Z,3.33
2023-03-17T13:01:43.248Z,3.10
2023-03-17T13:04:16.093Z,3.00
2023-03-17T13:06:54.868Z,3.83
2023-03-17T13:09:36.582Z,3.35
2023-03-17T13:12:06.681Z,3.20
2023-03-17T13:14:42.798Z,3.15
2023-03-17T13:17:22.101Z,3.20
2023-03-17T13:20:07.557Z,2.92
2023-03-17T13:22:41.903Z,2.90
2023-03-17T13:25:33.472Z,2.90
2023-03-17T13:28:23.471Z,3.17
2023-03-17T13:31:08.707Z,3.50
2023-03-17T13:33:41.123Z,3.60
2023-03-17T13:36:14.335Z,4.07
2023-03-17T13:39:27.111Z,3.67
2023-03-17T13:42:12.077Z,5.93
2023-03-17T13:45:16.504Z,4.25
2023-03-17T13:47:43.918Z,3.75
2023-03-17T13:50:31.049Z,3.33
2023-03-17T13:53:02.772Z,4.00
2023-03-17T13:55:35.242Z,4.10
2023-03-17T13:58:10.962Z,4.07
2023-03-17T14:00:55.309Z,3.63
2023-03-17T14:03:43.356Z,3.97
2023-03-17T14:06:12.855Z,5.10
2023-03-17T14:08:59.633Z,4.30
2023-03-17T14:11:32.196Z,4.72
2023-03-17T14:14:33.029Z,4.10
2023-03-17T14:17:06.115Z,4.63
2023-03-17T14:19:33.394Z,3.67
2023-03-17T14:22:33.607Z,4.30
2023-03-17T14:25:01.780Z,4.80
2023-03-17T14:27:31.875Z,4.97
2023-03-17T14:30:06.749Z,4.68
2023-03-17T14:32:34.026Z,5.13
2023-03-17T14:35:01.074Z,5.10
2023-03-17T14:37:28.624Z,4.47
2023-03-17T14:39:57.724Z,5.15
2023-03-17T14:42:32.164Z,5.15
2023-03-17T14:45:08.449Z,5.38
2023-03-17T14:47:41.246Z,4.22
2023-03-17T14:50:29.711Z,3.97
2023-03-17T14:52:59.231Z,5.10
2023-03-17T14:55:42.165Z,4.50
2023-03-17T14:58:21.815Z,4.15
2023-03-17T15:01:03.354Z,4.15
2023-03-17T15:03:33.090Z,3.95
2023-03-17T15:06:30.497Z,3.97
2023-03-17T15:09:04.640Z,4.55
2023-03-17T15:11:41.539Z,4.65
2023-03-17T15:14:22.921Z,4.05
2023-03-17T15:16:52.503Z,4.13
2023-03-17T15:19:27.611Z,5.07
2023-03-17T15:22:00.604Z,5.03
2023-03-17T15:24:39.367Z,5.28
2023-03-17T15:27:16.611Z,4.50
2023-03-17T15:29:44.510Z,4.75
2023-03-17T15:32:17.415Z,4.60
2023-03-17T15:34:44.280Z,4.90
2023-03-17T15:37:20.653Z,4.80
2023-03-17T15:39:51.518Z,4.88
2023-03-17T15:42:22.295Z,5.05
2023-03-17T15:44:49.126Z,6.10
2023-03-17T15:47:18.481Z,6.00
2023-03-17T15:49:46.644Z,5.25
2023-03-17T15:52:21.578Z,4.55
2023-03-17T15:54:49.556Z,4.80
2023-03-17T15:57:16.504Z,5.50
2023-03-17T15:59:43.812Z,4.90
2023-03-17T16:02:20.628Z,4.68
2023-03-17T16:04:47.908Z,5.38
2023-03-17T16:07:14.692Z,5.13
2023-03-17T16:09:41.795Z,4.60
2023-03-17T16:12:12.174Z,4.70
2023-03-17T16:14:39.049Z,4.50
2023-03-17T16:17:07.077Z,4.80
2023-03-17T16:19:34.812Z,5.20
2023-03-17T16:22:01.708Z,5.53
2023-03-17T16:24:28.736Z,7.00
2023-03-17T16:26:55.584Z,6.53
2023-03-17T16:29:22.474Z,5.65
2023-03-17T16:31:50.971Z,6.20
2023-03-17T16:34:20.771Z,5.88
2023-03-17T16:36:48.653Z,6.10
2023-03-17T16:39:23.576Z,6.30
2023-03-17T16:41:51.093Z,6.82
2023-03-17T16:44:20.556Z,6.95
2023-03-17T16:46:47.899Z,9.35
2023-03-17T16:49:20.628Z,9.25
2023-03-17T16:51:49.392Z,10.30
2023-03-17T16:54:16.921Z,10.13
2023-03-17T16:56:43.846Z,10.45
2023-03-17T16:59:17.602Z,10.45
2023-03-17T17:01:47.062Z,10.70
2023-03-17T17:04:13.920Z,9.88
2023-03-17T17:06:40.885Z,10.70
2023-03-17T17:09:07.701Z,10.35
2023-03-17T17:11:34.458Z,11.38
2023-03-17T17:14:01.285Z,11.85
2023-03-17T17:16:32.094Z,9.63
2023-03-17T17:18:59.495Z,9.98
2023-03-17T17:21:27.506Z,8.98
2023-03-17T17:23:54.345Z,7.47
2023-03-17T17:26:22.114Z,8.02
2023-03-17T17:28:49.126Z,6.35
2023-03-17T17:31:16.098Z,6.53
2023-03-17T17:33:42.910Z,6.95
2023-03-17T17:36:15.728Z,6.18
2023-03-17T17:38:42.862Z,6.32
2023-03-17T17:41:11.053Z,6.53
2023-03-17T17:43:38.099Z,6.10
2023-03-17T17:46:11.566Z,6.00
2023-03-17T17:48:38.354Z,6.10
2023-03-17T17:51:05.320Z,5.75
2023-03-17T17:53:32.095Z,5.30
2023-03-17T17:56:01.360Z,6.00
2023-03-17T17:58:28.623Z,5.57
2023-03-17T18:00:57.208Z,5.97
2023-03-17T18:03:26.581Z,5.82
2023-03-17T18:05:55.237Z,5.78
2023-03-17T18:08:23.137Z,5.72
2023-03-17T18:10:51.960Z,5.30
2023-03-17T18:13:19.131Z,5.63
2023-03-17T18:15:52.361Z,5.68
2023-03-17T18:18:19.167Z,6.07
2023-03-17T18:20:46.124Z,5.65
2023-03-17T18:23:13.018Z,5.88
2023-03-17T18:25:39.780Z,6.72
2023-03-17T18:28:07.109Z,5.38
2023-03-17T18:30:35.146Z,5.57
2023-03-17T18:33:13.406Z,5.60
2023-03-17T18:35:41.191Z,6.65
2023-03-17T18:38:08.613Z,5.60
2023-03-17T18:40:35.828Z,6.03
2023-03-17T18:43:03.151Z,6.15
2023-03-17T18:45:29.979Z,6.47
2023-03-17T18:47:56.926Z,6.32
2023-03-17T18:50:23.775Z,6.35
2023-03-17T18:52:50.797Z,6.07
2023-03-17T18:55:18.083Z,6.38
2023-03-17T18:57:46.426Z,6.75
2023-03-17T19:00:16.373Z,6.97
2023-03-17T19:02:43.202Z,6.05
2023-03-17T19:05:10.356Z,6.85
2023-03-17T19:07:40.079Z,9.00
2023-03-17T19:10:08.003Z,8.07
2023-03-17T19:12:34.803Z,7.47
2023-03-17T19:15:01.830Z,7.25
2023-03-17T19:17:28.789Z,7.10
2023-03-17T19:19:55.880Z,8.43
2023-03-17T19:22:23.047Z,6.88
2023-03-17T19:24:50.498Z,6.65
2023-03-17T19:27:18.022Z,7.70
2023-03-17T19:29:45.081Z,8.98
2023-03-17T19:32:12.380Z,7.65
2023-03-17T19:34:39.238Z,8.70
2023-03-17T19:37:06.026Z,8.20
2023-03-17T19:39:33.912Z,8.10
2023-03-17T19:42:00.950Z,7.68
2023-03-17T19:44:27.731Z,8.40
2023-03-17T19:46:54.568Z,6.93
2023-03-17T19:49:22.398Z,6.97
2023-03-17T19:51:49.887Z,8.15
2023-03-17T19:54:18.750Z,6.85
2023-03-17T19:56:45.889Z,6.95
2023-03-17T19:59:12.788Z,6.65
2023-03-17T20:01:39.643Z,7.40
2023-03-17T20:04:07.287Z,6.88
2023-03-17T20:06:38.177Z,6.90
2023-03-17T20:09:05.301Z,6.63
2023-03-17T20:11:34.108Z,7.40
2023-03-17T20:14:04.268Z,6.65
2023-03-17T20:16:33.646Z,7.65
2023-03-17T20:19:01.550Z,7.25
2023-03-17T20:21:28.565Z,7.95
2023-03-17T20:23:56.383Z,8.23
2023-03-17T20:26:23.355Z,7.78
2023-03-17T20:28:50.407Z,8.05
2023-03-17T20:31:18.013Z,7.72
2023-03-17T20:33:44.945Z,7.80
2023-03-17T20:36:12.958Z,7.45
2023-03-17T20:38:40.739Z,7.00
2023-03-17T20:41:13.756Z,7.57
2023-03-17T20:43:41.815Z,7.45
2023-03-17T20:46:13.779Z,7.80
2023-03-17T20:48:41.250Z,6.85
2023-03-17T20:51:15.803Z,10.48
2023-03-17T20:53:47.664Z,10.90
2023-03-17T20:56:22.444Z,11.50
2023-03-17T20:58:50.284Z,12.52
2023-03-17T21:01:20.751Z,11.95
2023-03-17T21:03:48.379Z,11.48
2023-03-17T21:06:15.665Z,9.57
2023-03-17T21:08:42.664Z,9.38
2023-03-17T21:11:15.211Z,9.43
2023-03-17T21:13:44.429Z,9.40
2023-03-17T21:16:25.557Z,9.77
2023-03-17T21:18:52.840Z,9.40
2023-03-17T21:21:22.207Z,8.65
2023-03-17T21:23:49.574Z,8.70
2023-03-17T21:26:16.716Z,8.75
2023-03-17T21:28:44.314Z,9.05
2023-03-17T21:31:13.117Z,9.05
2023-03-17T21:33:47.600Z,9.48
2023-03-17T21:36:14.938Z,10.40
2023-03-17T21:38:47.401Z,9.80
2023-03-17T21:41:33.291Z,10.07
2023-03-17T21:44:04.121Z,9.73
2023-03-17T21:46:33.736Z,8.55
2023-03-17T21:49:03.874Z,10.10
2023-03-17T21:51:33.673Z,9.00
2023-03-17T21:54:01.534Z,8.85
2023-03-17T21:56:32.159Z,9.65
2023-03-17T21:59:00.777Z,10.52
2023-03-17T22:01:42.804Z,10.30
2023-03-17T22:04:16.619Z,12.40
2023-03-17T22:07:04.716Z,14.02
2023-03-17T22:09:40.511Z,11.98
2023-03-17T22:12:27.100Z,12.60
2023-03-17T22:14:57.758Z,10.50
2023-03-17T22:17:33.036Z,10.50
2023-03-17T22:20:07.382Z,9.60
2023-03-17T22:22:44.812Z,10.25
2023-03-17T22:25:14.646Z,10.18
2023-03-17T22:27:48.805Z,9.43
2023-03-17T22:30:19.063Z,9.70
2023-03-17T22:32:46.417Z,9.70
2023-03-17T22:35:22.130Z,10.43
2023-03-17T22:37:51.886Z,9.10
2023-03-17T22:40:22.019Z,9.88
2023-03-17T22:42:58.514Z,11.02
2023-03-17T22:45:26.718Z,10.30
2023-03-17T22:47:54.413Z,11.18
2023-03-17T22:50:24.402Z,10.85
2023-03-17T22:52:51.709Z,10.85
2023-03-17T22:55:24.142Z,10.70
2023-03-17T22:57:54.299Z,11.20
2023-03-17T23:00:21.718Z,12.43
2023-03-17T23:02:52.674Z,12.43
2023-03-17T23:05:22.645Z,12.15
2023-03-17T23:07:59.420Z,12.32
2023-03-17T23:10:36.228Z,11.57
2023-03-17T23:13:06.365Z,12.23
2023-03-17T23:15:36.772Z,10.98
2023-03-17T23:18:09.426Z,9.68
2023-03-17T23:20:45.694Z,11.75
2023-03-17T23:23:12.883Z,11.35
2023-03-17T23:25:39.848Z,11.07
2023-03-17T23:28:07.598Z,11.48
2023-03-17T23:30:35.875Z,12.05
2023-03-17T23:33:04.848Z,11.90
2023-03-17T23:35:32.078Z,13.32
2023-03-17T23:37:59.533Z,12.90
2023-03-17T23:40:26.385Z,10.82
2023-03-17T23:42:55.112Z,10.55
2023-03-17T23:45:23.293Z,12.18
2023-03-17T23:47:52.106Z,11.35
2023-03-17T23:50:20.948Z,10.10
2023-03-17T23:52:48.179Z,11.38
2023-03-17T23:55:16.799Z,12.45
2023-03-17T23:57:44.385Z,12.65
